sensor_id;sensor_type;location;lat;lon;timestamp;temperature;humidity
34135;DHT22;20410;55.578;12.968;2023-06-22T00:02:15;19.20;98.20
34135;DHT22;20410;55.578;12.968;2023-06-22T00:04:41;19.20;99.90
34135;DHT22;20410;55.578;12.968;2023-06-22T00:07:07;19.20;99.90
34135;DHT22;20410;55.578;12.968;2023-06-22T00:09:33;19.20;99.90
34135;DHT22;20410;55.578;12.968;2023-06-22T00:11:58;19.20;99.90
34135;DHT22;20410;55.578;12.968;2023-06-22T00:14:24;19.20;99.90
34135;DHT22;20410;55.578;12.968;2023-06-22T00:16:49;19.20;97.00
34135;DHT22;20410;55.578;12.968;2023-06-22T00:19:19;19.20;99.90
34135;DHT22;20410;55.578;12.968;2023-06-22T00:21:44;19.10;99.90
34135;DHT22;20410;55.578;12.968;2023-06-22T00:24:12;19.10;99.90
34135;DHT22;20410;55.578;12.968;2023-06-22T00:26:38;19.10;99.90
34135;DHT22;20410;55.578;12.968;2023-06-22T00:29:04;19.10;99.90
34135;DHT22;20410;55.578;12.968;2023-06-22T00:31:30;19.00;99.90
34135;DHT22;20410;55.578;12.968;2023-06-22T00:33:55;18.90;99.90
34135;DHT22;20410;55.578;12.968;2023-06-22T00:36:21;18.90;99.90
34135;DHT22;20410;55.578;12.968;2023-06-22T00:38:47;18.90;99.90
34135;DHT22;20410;55.578;12.968;2023-06-22T00:41:12;18.90;99.90
34135;DHT22;20410;55.578;12.968;2023-06-22T00:43:38;18.80;99.90
34135;DHT22;20410;55.578;12.968;2023-06-22T00:46:04;18.80;99.90
34135;DHT22;20410;55.578;12.968;2023-06-22T00:48:29;18.80;99.90
34135;DHT22;20410;55.578;12.968;2023-06-22T00:50:55;18.80;99.90
34135;DHT22;20410;55.578;12.968;2023-06-22T00:53:21;18.80;99.90
34135;DHT22;20410;55.578;12.968;2023-06-22T00:55:47;18.70;99.90
34135;DHT22;20410;55.578;12.968;2023-06-22T00:58:16;18.70;99.90
34135;DHT22;20410;55.578;12.968;2023-06-22T01:00:42;18.70;99.90
34135;DHT22;20410;55.578;12.968;2023-06-22T01:03:08;18.70;99.90
34135;DHT22;20410;55.578;12.968;2023-06-22T01:05:35;18.70;99.90
34135;DHT22;20410;55.578;12.968;2023-06-22T01:10:53;18.70;99.90
34135;DHT22;20410;55.578;12.968;2023-06-22T01:16:33;18.60;99.90
34135;DHT22;20410;55.578;12.968;2023-06-22T01:21:52;18.60;99.90
34135;DHT22;20410;55.578;12.968;2023-06-22T01:24:30;18.60;99.90
34135;DHT22;20410;55.578;12.968;2023-06-22T01:29:29;18.50;99.90
34135;DHT22;20410;55.578;12.968;2023-06-22T01:31:56;18.50;99.90
34135;DHT22;20410;55.578;12.968;2023-06-22T01:34:23;18.50;99.90
34135;DHT22;20410;55.578;12.968;2023-06-22T01:36:50;18.50;99.90
34135;DHT22;20410;55.578;12.968;2023-06-22T01:39:17;18.50;99.90
34135;DHT22;20410;55.578;12.968;2023-06-22T01:41:44;18.50;99.90
34135;DHT22;20410;55.578;12.968;2023-06-22T01:44:10;18.50;99.90
34135;DHT22;20410;55.578;12.968;2023-06-22T01:46:37;18.40;99.90
34135;DHT22;20410;55.578;12.968;2023-06-22T01:49:04;18.40;99.90
34135;DHT22;20410;55.578;12.968;2023-06-22T01:51:30;18.40;99.90
34135;DHT22;20410;55.578;12.968;2023-06-22T01:53:56;18.40;99.90
34135;DHT22;20410;55.578;12.968;2023-06-22T01:56:22;18.30;99.90
34135;DHT22;20410;55.578;12.968;2023-06-22T01:59:04;18.30;99.90
34135;DHT22;20410;55.578;12.968;2023-06-22T02:01:39;18.30;99.90
34135;DHT22;20410;55.578;12.968;2023-06-22T02:04:21;18.30;99.90
34135;DHT22;20410;55.578;12.968;2023-06-22T02:06:50;18.30;99.90
34135;DHT22;20410;55.578;12.968;2023-06-22T02:09:20;18.20;99.90
34135;DHT22;20410;55.578;12.968;2023-06-22T02:11:46;18.20;99.90
34135;DHT22;20410;55.578;12.968;2023-06-22T02:14:14;18.20;99.90
34135;DHT22;20410;55.578;12.968;2023-06-22T02:16:41;18.20;99.90
34135;DHT22;20410;55.578;12.968;2023-06-22T02:19:07;18.10;99.90
34135;DHT22;20410;55.578;12.968;2023-06-22T02:21:33;18.10;99.90
34135;DHT22;20410;55.578;12.968;2023-06-22T02:23:59;18.10;99.90
34135;DHT22;20410;55.578;12.968;2023-06-22T02:26:25;18.10;99.90
34135;DHT22;20410;55.578;12.968;2023-06-22T02:28:51;18.10;99.90
34135;DHT22;20410;55.578;12.968;2023-06-22T02:31:18;18.10;99.90
34135;DHT22;20410;55.578;12.968;2023-06-22T02:33:43;18.10;99.90
34135;DHT22;20410;55.578;12.968;2023-06-22T02:36:10;18.10;99.90
34135;DHT22;20410;55.578;12.968;2023-06-22T02:38:40;18.10;99.90
34135;DHT22;20410;55.578;12.968;2023-06-22T02:41:14;18.10;99.90
34135;DHT22;20410;55.578;12.968;2023-06-22T02:43:44;18.10;99.90
34135;DHT22;20410;55.578;12.968;2023-06-22T02:46:10;18.10;99.90
34135;DHT22;20410;55.578;12.968;2023-06-22T02:48:36;18.10;99.90
34135;DHT22;20410;55.578;12.968;2023-06-22T02:51:01;18.10;99.90
34135;DHT22;20410;55.578;12.968;2023-06-22T02:53:27;18.00;99.90
34135;DHT22;20410;55.578;12.968;2023-06-22T02:55:52;18.10;99.90
34135;DHT22;20410;55.578;12.968;2023-06-22T02:58:18;18.10;99.90
34135;DHT22;20410;55.578;12.968;2023-06-22T03:00:44;18.10;99.90
34135;DHT22;20410;55.578;12.968;2023-06-22T03:03:09;18.00;99.90
34135;DHT22;20410;55.578;12.968;2023-06-22T03:05:35;18.00;99.90
34135;DHT22;20410;55.578;12.968;2023-06-22T03:08:00;18.10;99.90
34135;DHT22;20410;55.578;12.968;2023-06-22T03:10:26;18.10;99.90
34135;DHT22;20410;55.578;12.968;2023-06-22T03:12:52;18.10;99.90
34135;DHT22;20410;55.578;12.968;2023-06-22T03:15:17;18.00;99.90
34135;DHT22;20410;55.578;12.968;2023-06-22T03:17:43;18.00;99.90
34135;DHT22;20410;55.578;12.968;2023-06-22T03:20:10;18.10;99.90
34135;DHT22;20410;55.578;12.968;2023-06-22T03:22:41;18.10;99.90
34135;DHT22;20410;55.578;12.968;2023-06-22T03:25:08;18.20;99.90
34135;DHT22;20410;55.578;12.968;2023-06-22T03:27:36;18.20;99.90
34135;DHT22;20410;55.578;12.968;2023-06-22T03:30:02;18.30;99.90
34135;DHT22;20410;55.578;12.968;2023-06-22T03:32:28;18.30;99.90
34135;DHT22;20410;55.578;12.968;2023-06-22T03:34:54;18.40;99.90
34135;DHT22;20410;55.578;12.968;2023-06-22T03:37:19;18.40;99.90
34135;DHT22;20410;55.578;12.968;2023-06-22T03:39:45;18.50;99.90
34135;DHT22;20410;55.578;12.968;2023-06-22T03:42:10;18.60;99.90
34135;DHT22;20410;55.578;12.968;2023-06-22T03:44:36;18.60;99.90
34135;DHT22;20410;55.578;12.968;2023-06-22T03:47:05;18.70;99.90
34135;DHT22;20410;55.578;12.968;2023-06-22T03:49:33;18.70;99.90
34135;DHT22;20410;55.578;12.968;2023-06-22T03:52:00;18.80;99.90
34135;DHT22;20410;55.578;12.968;2023-06-22T03:54:27;18.80;99.90
34135;DHT22;20410;55.578;12.968;2023-06-22T03:56:53;18.80;99.90
34135;DHT22;20410;55.578;12.968;2023-06-22T03:59:19;18.80;99.90
34135;DHT22;20410;55.578;12.968;2023-06-22T04:01:44;18.80;99.90
34135;DHT22;20410;55.578;12.968;2023-06-22T04:04:10;18.80;99.90
34135;DHT22;20410;55.578;12.968;2023-06-22T04:06:36;18.80;99.90
34135;DHT22;20410;55.578;12.968;2023-06-22T04:09:02;18.80;99.90
34135;DHT22;20410;55.578;12.968;2023-06-22T04:11:27;18.90;99.90
34135;DHT22;20410;55.578;12.968;2023-06-22T04:13:53;18.90;99.90
34135;DHT22;20410;55.578;12.968;2023-06-22T04:16:19;19.00;99.90
34135;DHT22;20410;55.578;12.968;2023-06-22T04:18:44;19.00;99.90
34135;DHT22;20410;55.578;12.968;2023-06-22T04:21:10;19.10;99.90
34135;DHT22;20410;55.578;12.968;2023-06-22T04:23:36;19.10;99.90
34135;DHT22;20410;55.578;12.968;2023-06-22T04:26:01;19.10;99.90
34135;DHT22;20410;55.578;12.968;2023-06-22T04:28:27;19.20;99.90
34135;DHT22;20410;55.578;12.968;2023-06-22T04:30:53;19.20;99.90
34135;DHT22;20410;55.578;12.968;2023-06-22T04:33:23;19.20;99.90
34135;DHT22;20410;55.578;12.968;2023-06-22T04:35:49;19.20;99.90
34135;DHT22;20410;55.578;12.968;2023-06-22T04:38:14;19.20;99.90
34135;DHT22;20410;55.578;12.968;2023-06-22T04:40:40;19.30;99.90
34135;DHT22;20410;55.578;12.968;2023-06-22T04:43:06;19.30;99.90
34135;DHT22;20410;55.578;12.968;2023-06-22T04:45:32;19.30;99.90
34135;DHT22;20410;55.578;12.968;2023-06-22T04:47:58;19.30;99.90
34135;DHT22;20410;55.578;12.968;2023-06-22T04:50:24;19.30;99.90
34135;DHT22;20410;55.578;12.968;2023-06-22T04:52:50;19.40;99.90
34135;DHT22;20410;55.578;12.968;2023-06-22T04:55:16;19.40;99.90
34135;DHT22;20410;55.578;12.968;2023-06-22T04:57:44;19.40;99.90
34135;DHT22;20410;55.578;12.968;2023-06-22T05:00:18;19.40;99.90
34135;DHT22;20410;55.578;12.968;2023-06-22T05:02:46;19.40;99.90
34135;DHT22;20410;55.578;12.968;2023-06-22T05:05:13;19.30;99.90
34135;DHT22;20410;55.578;12.968;2023-06-22T05:07:57;19.30;99.90
34135;DHT22;20410;55.578;12.968;2023-06-22T05:10:26;19.30;99.90
34135;DHT22;20410;55.578;12.968;2023-06-22T05:12:51;19.30;99.90
34135;DHT22;20410;55.578;12.968;2023-06-22T05:15:17;19.30;99.90
34135;DHT22;20410;55.578;12.968;2023-06-22T05:17:45;19.40;99.90
34135;DHT22;20410;55.578;12.968;2023-06-22T05:20:11;19.40;99.90
34135;DHT22;20410;55.578;12.968;2023-06-22T05:22:38;19.50;99.90
34135;DHT22;20410;55.578;12.968;2023-06-22T05:25:07;19.60;1.00
34135;DHT22;20410;55.578;12.968;2023-06-22T05:27:33;19.60;1.00
34135;DHT22;20410;55.578;12.968;2023-06-22T05:29:59;19.60;1.00
34135;DHT22;20410;55.578;12.968;2023-06-22T05:32:24;19.70;1.00
34135;DHT22;20410;55.578;12.968;2023-06-22T05:34:50;19.80;1.00
34135;DHT22;20410;55.578;12.968;2023-06-22T05:37:15;20.00;1.00
34135;DHT22;20410;55.578;12.968;2023-06-22T05:39:41;20.10;1.00
34135;DHT22;20410;55.578;12.968;2023-06-22T05:42:07;20.00;1.00
34135;DHT22;20410;55.578;12.968;2023-06-22T05:44:33;20.00;1.00
34135;DHT22;20410;55.578;12.968;2023-06-22T05:46:59;19.90;1.00
34135;DHT22;20410;55.578;12.968;2023-06-22T05:49:25;19.90;1.00
34135;DHT22;20410;55.578;12.968;2023-06-22T05:51:58;19.90;1.00
34135;DHT22;20410;55.578;12.968;2023-06-22T05:54:23;19.80;1.00
34135;DHT22;20410;55.578;12.968;2023-06-22T05:56:49;19.80;1.00
34135;DHT22;20410;55.578;12.968;2023-06-22T05:59:14;19.90;1.00
34135;DHT22;20410;55.578;12.968;2023-06-22T06:01:40;20.00;1.00
34135;DHT22;20410;55.578;12.968;2023-06-22T06:04:06;20.10;1.00
34135;DHT22;20410;55.578;12.968;2023-06-22T06:06:34;20.10;1.00
34135;DHT22;20410;55.578;12.968;2023-06-22T06:09:04;20.00;1.00
34135;DHT22;20410;55.578;12.968;2023-06-22T06:11:30;19.80;1.00
34135;DHT22;20410;55.578;12.968;2023-06-22T06:13:55;19.80;1.00
34135;DHT22;20410;55.578;12.968;2023-06-22T06:16:22;19.80;1.00
34135;DHT22;20410;55.578;12.968;2023-06-22T06:18:47;19.90;1.00
34135;DHT22;20410;55.578;12.968;2023-06-22T06:21:15;20.00;1.00
34135;DHT22;20410;55.578;12.968;2023-06-22T06:23:40;20.00;1.00
34135;DHT22;20410;55.578;12.968;2023-06-22T06:26:07;20.10;1.00
34135;DHT22;20410;55.578;12.968;2023-06-22T06:28:33;20.10;1.00
34135;DHT22;20410;55.578;12.968;2023-06-22T06:30:59;20.20;1.00
34135;DHT22;20410;55.578;12.968;2023-06-22T06:33:25;20.30;1.00
34135;DHT22;20410;55.578;12.968;2023-06-22T06:35:50;20.40;1.00
34135;DHT22;20410;55.578;12.968;2023-06-22T06:38:16;20.40;1.00
34135;DHT22;20410;55.578;12.968;2023-06-22T06:40:42;20.40;1.00
34135;DHT22;20410;55.578;12.968;2023-06-22T06:43:07;20.40;1.00
34135;DHT22;20410;55.578;12.968;2023-06-22T06:45:33;20.40;1.00
34135;DHT22;20410;55.578;12.968;2023-06-22T06:48:00;20.40;1.00
34135;DHT22;20410;55.578;12.968;2023-06-22T06:50:27;20.40;1.00
34135;DHT22;20410;55.578;12.968;2023-06-22T06:52:53;20.30;1.00
34135;DHT22;20410;55.578;12.968;2023-06-22T06:55:19;20.40;1.00
34135;DHT22;20410;55.578;12.968;2023-06-22T06:57:45;20.40;1.00
34135;DHT22;20410;55.578;12.968;2023-06-22T07:00:14;20.40;1.00
34135;DHT22;20410;55.578;12.968;2023-06-22T07:02:44;20.50;1.00
34135;DHT22;20410;55.578;12.968;2023-06-22T07:05:12;20.50;1.00
34135;DHT22;20410;55.578;12.968;2023-06-22T07:07:38;20.60;1.00
34135;DHT22;20410;55.578;12.968;2023-06-22T07:10:05;20.60;1.00
34135;DHT22;20410;55.578;12.968;2023-06-22T07:12:30;20.60;1.00
34135;DHT22;20410;55.578;12.968;2023-06-22T07:15:06;20.70;1.00
34135;DHT22;20410;55.578;12.968;2023-06-22T07:17:35;20.90;1.00
34135;DHT22;20410;55.578;12.968;2023-06-22T07:20:02;21.00;1.00
34135;DHT22;20410;55.578;12.968;2023-06-22T07:22:33;21.10;1.00
34135;DHT22;20410;55.578;12.968;2023-06-22T07:24:58;21.30;1.00
34135;DHT22;20410;55.578;12.968;2023-06-22T07:27:24;21.20;1.00
34135;DHT22;20410;55.578;12.968;2023-06-22T07:29:50;21.30;1.00
34135;DHT22;20410;55.578;12.968;2023-06-22T07:32:15;21.40;1.00
34135;DHT22;20410;55.578;12.968;2023-06-22T07:34:41;21.60;1.00
34135;DHT22;20410;55.578;12.968;2023-06-22T07:37:07;21.70;1.00
34135;DHT22;20410;55.578;12.968;2023-06-22T07:39:32;21.80;1.00
34135;DHT22;20410;55.578;12.968;2023-06-22T07:41:58;21.80;1.00
34135;DHT22;20410;55.578;12.968;2023-06-22T07:44:23;21.70;1.00
34135;DHT22;20410;55.578;12.968;2023-06-22T07:46:49;21.70;1.00
34135;DHT22;20410;55.578;12.968;2023-06-22T07:49:15;21.70;1.00
34135;DHT22;20410;55.578;12.968;2023-06-22T07:51:41;21.70;1.00
34135;DHT22;20410;55.578;12.968;2023-06-22T07:54:08;22.00;1.00
34135;DHT22;20410;55.578;12.968;2023-06-22T07:56:34;22.10;1.00
34135;DHT22;20410;55.578;12.968;2023-06-22T07:58:59;22.10;1.00
34135;DHT22;20410;55.578;12.968;2023-06-22T08:01:27;22.00;1.00
34135;DHT22;20410;55.578;12.968;2023-06-22T08:03:52;22.00;1.00
34135;DHT22;20410;55.578;12.968;2023-06-22T08:06:18;22.00;1.00
34135;DHT22;20410;55.578;12.968;2023-06-22T08:08:43;22.20;1.00
34135;DHT22;20410;55.578;12.968;2023-06-22T08:11:13;22.30;1.00
34135;DHT22;20410;55.578;12.968;2023-06-22T08:13:38;22.50;1.00
34135;DHT22;20410;55.578;12.968;2023-06-22T08:16:04;22.40;1.00
34135;DHT22;20410;55.578;12.968;2023-06-22T08:18:30;22.40;1.00
34135;DHT22;20410;55.578;12.968;2023-06-22T08:20:56;22.40;1.00
34135;DHT22;20410;55.578;12.968;2023-06-22T08:23:21;22.50;1.00
34135;DHT22;20410;55.578;12.968;2023-06-22T08:25:47;22.20;1.00
34135;DHT22;20410;55.578;12.968;2023-06-22T08:28:13;22.10;1.00
34135;DHT22;20410;55.578;12.968;2023-06-22T08:30:39;22.30;1.00
34135;DHT22;20410;55.578;12.968;2023-06-22T08:33:04;22.20;1.00
34135;DHT22;20410;55.578;12.968;2023-06-22T08:35:30;22.20;1.00
34135;DHT22;20410;55.578;12.968;2023-06-22T08:37:56;22.30;1.00
34135;DHT22;20410;55.578;12.968;2023-06-22T08:40:22;22.40;1.00
34135;DHT22;20410;55.578;12.968;2023-06-22T08:42:48;22.30;1.00
34135;DHT22;20410;55.578;12.968;2023-06-22T08:45:14;22.40;1.00
34135;DHT22;20410;55.578;12.968;2023-06-22T08:47:41;22.40;1.00
34135;DHT22;20410;55.578;12.968;2023-06-22T08:50:08;22.30;1.00
34135;DHT22;20410;55.578;12.968;2023-06-22T08:52:34;22.40;1.00
34135;DHT22;20410;55.578;12.968;2023-06-22T08:55:00;22.40;1.00
34135;DHT22;20410;55.578;12.968;2023-06-22T08:57:27;22.50;1.00
34135;DHT22;20410;55.578;12.968;2023-06-22T08:59:52;22.40;1.00
34135;DHT22;20410;55.578;12.968;2023-06-22T09:02:19;22.60;1.00
34135;DHT22;20410;55.578;12.968;2023-06-22T09:04:46;22.60;1.00
34135;DHT22;20410;55.578;12.968;2023-06-22T09:07:11;22.90;1.00
34135;DHT22;20410;55.578;12.968;2023-06-22T09:09:37;23.10;1.00
34135;DHT22;20410;55.578;12.968;2023-06-22T09:12:03;23.30;1.00
34135;DHT22;20410;55.578;12.968;2023-06-22T09:14:29;23.30;1.00
34135;DHT22;20410;55.578;12.968;2023-06-22T09:16:55;23.10;1.00
34135;DHT22;20410;55.578;12.968;2023-06-22T09:19:20;23.00;1.00
34135;DHT22;20410;55.578;12.968;2023-06-22T09:21:46;23.00;1.00
34135;DHT22;20410;55.578;12.968;2023-06-22T09:24:12;22.80;1.00
34135;DHT22;20410;55.578;12.968;2023-06-22T09:26:37;22.90;1.00
34135;DHT22;20410;55.578;12.968;2023-06-22T09:29:05;22.90;1.00
34135;DHT22;20410;55.578;12.968;2023-06-22T09:31:31;22.90;1.00
34135;DHT22;20410;55.578;12.968;2023-06-22T09:33:57;23.00;1.00
34135;DHT22;20410;55.578;12.968;2023-06-22T09:36:22;23.10;1.00
34135;DHT22;20410;55.578;12.968;2023-06-22T09:38:48;23.10;1.00
34135;DHT22;20410;55.578;12.968;2023-06-22T09:41:21;23.00;1.00
34135;DHT22;20410;55.578;12.968;2023-06-22T09:43:47;23.30;1.00
34135;DHT22;20410;55.578;12.968;2023-06-22T09:46:16;23.30;1.00
34135;DHT22;20410;55.578;12.968;2023-06-22T09:48:42;23.10;1.00
34135;DHT22;20410;55.578;12.968;2023-06-22T09:51:08;22.90;1.00
34135;DHT22;20410;55.578;12.968;2023-06-22T09:53:33;23.10;1.00
34135;DHT22;20410;55.578;12.968;2023-06-22T09:56:00;23.30;1.00
34135;DHT22;20410;55.578;12.968;2023-06-22T09:58:27;23.30;1.00
34135;DHT22;20410;55.578;12.968;2023-06-22T10:00:53;23.20;1.00
34135;DHT22;20410;55.578;12.968;2023-06-22T10:03:20;23.10;1.00
34135;DHT22;20410;55.578;12.968;2023-06-22T10:05:45;23.00;1.00
34135;DHT22;20410;55.578;12.968;2023-06-22T10:08:11;23.00;1.00
34135;DHT22;20410;55.578;12.968;2023-06-22T10:10:37;22.90;1.00
34135;DHT22;20410;55.578;12.968;2023-06-22T10:13:10;22.90;1.00
34135;DHT22;20410;55.578;12.968;2023-06-22T10:15:36;23.20;1.00
34135;DHT22;20410;55.578;12.968;2023-06-22T10:18:02;23.50;1.00
34135;DHT22;20410;55.578;12.968;2023-06-22T10:20:28;23.30;1.00
34135;DHT22;20410;55.578;12.968;2023-06-22T10:22:54;23.30;1.00
34135;DHT22;20410;55.578;12.968;2023-06-22T10:25:19;23.40;1.00
34135;DHT22;20410;55.578;12.968;2023-06-22T10:27:45;23.80;1.00
34135;DHT22;20410;55.578;12.968;2023-06-22T10:30:12;23.90;1.00
34135;DHT22;20410;55.578;12.968;2023-06-22T10:32:38;23.90;1.00
34135;DHT22;20410;55.578;12.968;2023-06-22T10:35:04;23.70;1.00
34135;DHT22;20410;55.578;12.968;2023-06-22T10:37:30;23.60;1.00
34135;DHT22;20410;55.578;12.968;2023-06-22T10:39:56;23.60;1.00
34135;DHT22;20410;55.578;12.968;2023-06-22T10:42:21;24.00;1.00
34135;DHT22;20410;55.578;12.968;2023-06-22T10:44:47;24.00;1.00
34135;DHT22;20410;55.578;12.968;2023-06-22T10:47:13;24.00;1.00
34135;DHT22;20410;55.578;12.968;2023-06-22T10:49:39;23.90;1.00
34135;DHT22;20410;55.578;12.968;2023-06-22T10:52:08;24.00;1.00
34135;DHT22;20410;55.578;12.968;2023-06-22T10:54:38;24.30;1.00
34135;DHT22;20410;55.578;12.968;2023-06-22T10:57:04;24.50;1.00
34135;DHT22;20410;55.578;12.968;2023-06-22T10:59:30;24.40;1.00
34135;DHT22;20410;55.578;12.968;2023-06-22T11:01:56;24.60;1.00
34135;DHT22;20410;55.578;12.968;2023-06-22T11:04:23;24.60;1.00
34135;DHT22;20410;55.578;12.968;2023-06-22T11:06:49;24.60;1.00
34135;DHT22;20410;55.578;12.968;2023-06-22T11:09:15;24.50;1.00
34135;DHT22;20410;55.578;12.968;2023-06-22T11:11:51;24.30;1.00
34135;DHT22;20410;55.578;12.968;2023-06-22T11:14:20;24.40;1.00
34135;DHT22;20410;55.578;12.968;2023-06-22T11:16:46;24.60;1.00
34135;DHT22;20410;55.578;12.968;2023-06-22T11:19:12;24.70;1.00
34135;DHT22;20410;55.578;12.968;2023-06-22T11:21:38;24.90;1.00
34135;DHT22;20410;55.578;12.968;2023-06-22T11:24:04;25.00;1.00
34135;DHT22;20410;55.578;12.968;2023-06-22T11:26:30;25.20;99.90
34135;DHT22;20410;55.578;12.968;2023-06-22T11:28:57;25.00;99.90
34135;DHT22;20410;55.578;12.968;2023-06-22T11:31:23;24.80;1.00
34135;DHT22;20410;55.578;12.968;2023-06-22T11:33:49;24.60;1.00
34135;DHT22;20410;55.578;12.968;2023-06-22T11:36:15;24.60;1.00
34135;DHT22;20410;55.578;12.968;2023-06-22T11:38:41;24.70;1.00
34135;DHT22;20410;55.578;12.968;2023-06-22T11:41:07;24.70;1.00
34135;DHT22;20410;55.578;12.968;2023-06-22T11:43:33;24.80;1.00
34135;DHT22;20410;55.578;12.968;2023-06-22T11:46:00;24.90;1.00
34135;DHT22;20410;55.578;12.968;2023-06-22T11:48:26;24.90;1.00
34135;DHT22;20410;55.578;12.968;2023-06-22T11:50:52;24.90;1.00
34135;DHT22;20410;55.578;12.968;2023-06-22T11:53:17;24.80;1.00
34135;DHT22;20410;55.578;12.968;2023-06-22T11:55:44;24.60;1.00
34135;DHT22;20410;55.578;12.968;2023-06-22T11:58:09;24.60;1.00
34135;DHT22;20410;55.578;12.968;2023-06-22T12:00:35;24.70;1.00
34135;DHT22;20410;55.578;12.968;2023-06-22T12:03:01;24.70;1.00
34135;DHT22;20410;55.578;12.968;2023-06-22T12:05:26;24.80;1.00
34135;DHT22;20410;55.578;12.968;2023-06-22T12:07:55;24.90;1.00
34135;DHT22;20410;55.578;12.968;2023-06-22T12:10:26;24.80;1.00
34135;DHT22;20410;55.578;12.968;2023-06-22T12:12:52;24.70;1.00
34135;DHT22;20410;55.578;12.968;2023-06-22T12:15:18;24.70;1.00
34135;DHT22;20410;55.578;12.968;2023-06-22T12:17:44;24.60;1.00
34135;DHT22;20410;55.578;12.968;2023-06-22T12:20:10;24.70;1.00
34135;DHT22;20410;55.578;12.968;2023-06-22T12:22:35;24.70;1.00
34135;DHT22;20410;55.578;12.968;2023-06-22T12:25:04;24.80;1.00
34135;DHT22;20410;55.578;12.968;2023-06-22T12:27:30;24.80;99.90
34135;DHT22;20410;55.578;12.968;2023-06-22T12:29:56;24.90;99.90
34135;DHT22;20410;55.578;12.968;2023-06-22T12:32:21;25.00;99.90
34135;DHT22;20410;55.578;12.968;2023-06-22T12:34:47;25.10;1.00
34135;DHT22;20410;55.578;12.968;2023-06-22T12:37:13;25.30;99.90
34135;DHT22;20410;55.578;12.968;2023-06-22T12:39:40;25.50;99.90
34135;DHT22;20410;55.578;12.968;2023-06-22T12:42:06;25.60;99.90
34135;DHT22;20410;55.578;12.968;2023-06-22T12:44:37;25.90;99.90
34135;DHT22;20410;55.578;12.968;2023-06-22T12:47:03;25.80;99.90
34135;DHT22;20410;55.578;12.968;2023-06-22T12:49:29;25.70;99.90
34135;DHT22;20410;55.578;12.968;2023-06-22T12:51:54;25.80;1.00
34135;DHT22;20410;55.578;12.968;2023-06-22T12:54:20;26.30;99.90
34135;DHT22;20410;55.578;12.968;2023-06-22T12:56:45;26.60;99.90
34135;DHT22;20410;55.578;12.968;2023-06-22T12:59:11;26.40;99.90
34135;DHT22;20410;55.578;12.968;2023-06-22T13:01:36;26.40;99.90
34135;DHT22;20410;55.578;12.968;2023-06-22T13:04:02;26.30;99.90
34135;DHT22;20410;55.578;12.968;2023-06-22T13:06:28;26.50;99.90
34135;DHT22;20410;55.578;12.968;2023-06-22T13:08:54;26.60;99.90
34135;DHT22;20410;55.578;12.968;2023-06-22T13:11:19;26.60;99.90
34135;DHT22;20410;55.578;12.968;2023-06-22T13:13:45;26.80;99.90
34135;DHT22;20410;55.578;12.968;2023-06-22T13:16:12;26.80;99.90
34135;DHT22;20410;55.578;12.968;2023-06-22T13:18:38;26.80;99.90
34135;DHT22;20410;55.578;12.968;2023-06-22T13:21:03;26.70;99.90
34135;DHT22;20410;55.578;12.968;2023-06-22T13:23:29;26.90;99.90
34135;DHT22;20410;55.578;12.968;2023-06-22T13:25:55;26.80;99.90
34135;DHT22;20410;55.578;12.968;2023-06-22T13:28:21;26.90;99.90
34135;DHT22;20410;55.578;12.968;2023-06-22T13:30:47;26.70;80.80
34135;DHT22;20410;55.578;12.968;2023-06-22T13:33:16;26.70;99.90
34135;DHT22;20410;55.578;12.968;2023-06-22T13:35:42;26.80;99.90
34135;DHT22;20410;55.578;12.968;2023-06-22T13:38:10;26.90;99.90
34135;DHT22;20410;55.578;12.968;2023-06-22T13:40:37;27.10;99.90
34135;DHT22;20410;55.578;12.968;2023-06-22T13:43:05;27.30;99.90
34135;DHT22;20410;55.578;12.968;2023-06-22T13:45:31;27.60;99.90
34135;DHT22;20410;55.578;12.968;2023-06-22T13:47:57;27.40;99.90
34135;DHT22;20410;55.578;12.968;2023-06-22T13:50:22;27.50;99.90
34135;DHT22;20410;55.578;12.968;2023-06-22T13:52:48;27.60;99.90
34135;DHT22;20410;55.578;12.968;2023-06-22T13:55:13;27.70;99.90
34135;DHT22;20410;55.578;12.968;2023-06-22T13:57:40;27.50;99.90
34135;DHT22;20410;55.578;12.968;2023-06-22T14:00:07;27.40;99.90
34135;DHT22;20410;55.578;12.968;2023-06-22T14:02:33;27.50;99.90
34135;DHT22;20410;55.578;12.968;2023-06-22T14:04:59;27.80;99.90
34135;DHT22;20410;55.578;12.968;2023-06-22T14:07:24;28.00;99.90
34135;DHT22;20410;55.578;12.968;2023-06-22T14:09:50;27.90;99.90
34135;DHT22;20410;55.578;12.968;2023-06-22T14:12:16;27.90;99.90
34135;DHT22;20410;55.578;12.968;2023-06-22T14:14:43;27.90;99.90
34135;DHT22;20410;55.578;12.968;2023-06-22T14:17:09;27.90;99.90
34135;DHT22;20410;55.578;12.968;2023-06-22T14:19:35;27.90;99.90
34135;DHT22;20410;55.578;12.968;2023-06-22T14:22:01;28.00;99.90
34135;DHT22;20410;55.578;12.968;2023-06-22T14:24:26;27.90;99.90
34135;DHT22;20410;55.578;12.968;2023-06-22T14:26:52;28.00;99.90
34135;DHT22;20410;55.578;12.968;2023-06-22T14:29:18;28.00;99.90
34135;DHT22;20410;55.578;12.968;2023-06-22T14:31:47;28.00;99.90
34135;DHT22;20410;55.578;12.968;2023-06-22T14:34:13;27.90;99.90
34135;DHT22;20410;55.578;12.968;2023-06-22T14:36:39;27.50;99.90
34135;DHT22;20410;55.578;12.968;2023-06-22T14:39:05;27.40;99.90
34135;DHT22;20410;55.578;12.968;2023-06-22T14:41:31;27.40;99.90
34135;DHT22;20410;55.578;12.968;2023-06-22T14:43:56;27.30;99.90
34135;DHT22;20410;55.578;12.968;2023-06-22T14:46:22;27.40;99.90
34135;DHT22;20410;55.578;12.968;2023-06-22T14:48:48;27.30;99.90
34135;DHT22;20410;55.578;12.968;2023-06-22T14:51:14;27.50;99.90
34135;DHT22;20410;55.578;12.968;2023-06-22T14:53:39;27.60;99.90
34135;DHT22;20410;55.578;12.968;2023-06-22T14:56:05;27.50;99.90
34135;DHT22;20410;55.578;12.968;2023-06-22T14:58:32;27.50;99.90
34135;DHT22;20410;55.578;12.968;2023-06-22T15:01:04;27.40;99.90
34135;DHT22;20410;55.578;12.968;2023-06-22T15:03:34;27.50;99.90
34135;DHT22;20410;55.578;12.968;2023-06-22T15:06:01;27.70;99.90
34135;DHT22;20410;55.578;12.968;2023-06-22T15:08:27;27.70;99.90
34135;DHT22;20410;55.578;12.968;2023-06-22T15:10:53;27.80;99.90
34135;DHT22;20410;55.578;12.968;2023-06-22T15:13:19;27.80;99.90
34135;DHT22;20410;55.578;12.968;2023-06-22T15:15:48;27.90;99.90
34135;DHT22;20410;55.578;12.968;2023-06-22T15:18:14;28.00;99.90
34135;DHT22;20410;55.578;12.968;2023-06-22T15:20:41;27.80;99.90
34135;DHT22;20410;55.578;12.968;2023-06-22T15:23:10;27.70;99.90
34135;DHT22;20410;55.578;12.968;2023-06-22T15:25:35;27.80;99.90
34135;DHT22;20410;55.578;12.968;2023-06-22T15:28:01;27.90;99.90
34135;DHT22;20410;55.578;12.968;2023-06-22T15:30:28;27.90;99.90